sensor_id;sensor_type;location;lat;lon;timestamp;temperature;humidity
27940;DHT22;15275;51.716;14.324;2023-02-01T00:00:20;8.50;80.30
27940;DHT22;15275;51.716;14.324;2023-02-01T00:02:46;8.40;80.80
27940;DHT22;15275;51.716;14.324;2023-02-01T00:05:11;8.40;80.90
27940;DHT22;15275;51.716;14.324;2023-02-01T00:07:38;8.40;80.60
27940;DHT22;15275;51.716;14.324;2023-02-01T00:10:05;8.40;80.40
27940;DHT22;15275;51.716;14.324;2023-02-01T00:12:32;8.30;80.80
27940;DHT22;15275;51.716;14.324;2023-02-01T00:14:58;8.30;80.50
27940;DHT22;15275;51.716;14.324;2023-02-01T00:17:24;8.30;80.70
27940;DHT22;15275;51.716;14.324;2023-02-01T00:19:50;8.30;80.50
27940;DHT22;15275;51.716;14.324;2023-02-01T00:22:16;8.30;80.30
27940;DHT22;15275;51.716;14.324;2023-02-01T00:24:42;8.20;79.70
27940;DHT22;15275;51.716;14.324;2023-02-01T00:27:07;8.20;80.60
27940;DHT22;15275;51.716;14.324;2023-02-01T00:29:33;8.20;80.60
27940;DHT22;15275;51.716;14.324;2023-02-01T00:31:59;8.10;79.90
27940;DHT22;15275;51.716;14.324;2023-02-01T00:34:25;8.10;80.40
27940;DHT22;15275;51.716;14.324;2023-02-01T00:36:51;8.10;80.20
27940;DHT22;15275;51.716;14.324;2023-02-01T00:39:17;8.10;80.40
27940;DHT22;15275;51.716;14.324;2023-02-01T00:41:43;8.10;79.90
27940;DHT22;15275;51.716;14.324;2023-02-01T00:44:09;8.10;80.00
27940;DHT22;15275;51.716;14.324;2023-02-01T00:46:35;8.10;79.70
27940;DHT22;15275;51.716;14.324;2023-02-01T00:49:01;8.00;79.90
27940;DHT22;15275;51.716;14.324;2023-02-01T00:51:28;8.00;79.30
27940;DHT22;15275;51.716;14.324;2023-02-01T00:53:54;8.00;79.70
27940;DHT22;15275;51.716;14.324;2023-02-01T00:56:21;8.00;79.80
27940;DHT22;15275;51.716;14.324;2023-02-01T00:58:47;8.00;79.90
27940;DHT22;15275;51.716;14.324;2023-02-01T01:01:19;8.00;80.10
27940;DHT22;15275;51.716;14.324;2023-02-01T01:03:48;7.90;80.30
27940;DHT22;15275;51.716;14.324;2023-02-01T01:06:30;7.90;80.20
27940;DHT22;15275;51.716;14.324;2023-02-01T01:08:58;7.90;80.00
27940;DHT22;15275;51.716;14.324;2023-02-01T01:11:29;7.90;80.30
27940;DHT22;15275;51.716;14.324;2023-02-01T01:13:57;7.90;80.30
27940;DHT22;15275;51.716;14.324;2023-02-01T01:16:25;7.90;80.60
27940;DHT22;15275;51.716;14.324;2023-02-01T01:18:52;7.90;80.30
27940;DHT22;15275;51.716;14.324;2023-02-01T01:21:19;7.90;79.90
27940;DHT22;15275;51.716;14.324;2023-02-01T01:23:45;7.80;80.10
27940;DHT22;15275;51.716;14.324;2023-02-01T01:26:19;7.80;80.10
27940;DHT22;15275;51.716;14.324;2023-02-01T01:28:46;7.80;80.30
27940;DHT22;15275;51.716;14.324;2023-02-01T01:31:15;7.80;79.70
27940;DHT22;15275;51.716;14.324;2023-02-01T01:33:42;7.80;80.20
27940;DHT22;15275;51.716;14.324;2023-02-01T01:36:09;7.80;80.20
27940;DHT22;15275;51.716;14.324;2023-02-01T01:38:37;7.80;80.40
27940;DHT22;15275;51.716;14.324;2023-02-01T01:41:04;7.80;80.40
27940;DHT22;15275;51.716;14.324;2023-02-01T01:43:51;7.80;80.30
27940;DHT22;15275;51.716;14.324;2023-02-01T01:49:17;7.90;79.60
27940;DHT22;15275;51.716;14.324;2023-02-01T01:51:55;7.90;79.90
27940;DHT22;15275;51.716;14.324;2023-02-01T01:54:35;7.90;80.00
27940;DHT22;15275;51.716;14.324;2023-02-01T01:57:19;7.90;80.30
27940;DHT22;15275;51.716;14.324;2023-02-01T02:00:04;7.90;80.20
27940;DHT22;15275;51.716;14.324;2023-02-01T02:02:34;8.00;80.10
27940;DHT22;15275;51.716;14.324;2023-02-01T02:05:01;8.00;80.30
27940;DHT22;15275;51.716;14.324;2023-02-01T02:07:35;8.00;80.50
27940;DHT22;15275;51.716;14.324;2023-02-01T02:10:06;8.00;80.10
27940;DHT22;15275;51.716;14.324;2023-02-01T02:12:39;8.00;79.60
27940;DHT22;15275;51.716;14.324;2023-02-01T02:15:07;8.00;80.30
27940;DHT22;15275;51.716;14.324;2023-02-01T02:17:58;8.00;79.90
27940;DHT22;15275;51.716;14.324;2023-02-01T02:27:02;8.00;79.00
27940;DHT22;15275;51.716;14.324;2023-02-01T02:41:03;7.90;80.20
27940;DHT22;15275;51.716;14.324;2023-02-01T02:43:41;8.00;80.00
27940;DHT22;15275;51.716;14.324;2023-02-01T02:46:38;8.00;80.40
27940;DHT22;15275;51.716;14.324;2023-02-01T02:53:16;8.00;79.60
27940;DHT22;15275;51.716;14.324;2023-02-01T02:56:06;8.00;80.40
27940;DHT22;15275;51.716;14.324;2023-02-01T02:58:52;8.00;80.10
27940;DHT22;15275;51.716;14.324;2023-02-01T03:01:40;8.00;80.20
27940;DHT22;15275;51.716;14.324;2023-02-01T03:04:25;8.10;80.20
27940;DHT22;15275;51.716;14.324;2023-02-01T03:06:52;8.10;79.70
27940;DHT22;15275;51.716;14.324;2023-02-01T03:09:34;8.10;79.80
27940;DHT22;15275;51.716;14.324;2023-02-01T03:12:08;8.10;79.50
27940;DHT22;15275;51.716;14.324;2023-02-01T03:15:01;8.10;79.60
27940;DHT22;15275;51.716;14.324;2023-02-01T03:17:35;8.10;80.30
27940;DHT22;15275;51.716;14.324;2023-02-01T03:20:06;8.20;79.20
27940;DHT22;15275;51.716;14.324;2023-02-01T03:22:33;8.20;80.30
27940;DHT22;15275;51.716;14.324;2023-02-01T03:25:10;8.20;80.30
27940;DHT22;15275;51.716;14.324;2023-02-01T03:30:29;8.20;79.30
27940;DHT22;15275;51.716;14.324;2023-02-01T03:33:00;8.20;79.90
27940;DHT22;15275;51.716;14.324;2023-02-01T03:36:00;8.20;80.00
27940;DHT22;15275;51.716;14.324;2023-02-01T03:41:41;8.20;78.90
27940;DHT22;15275;51.716;14.324;2023-02-01T03:47:30;8.20;79.00
27940;DHT22;15275;51.716;14.324;2023-02-01T03:50:06;8.20;79.10
27940;DHT22;15275;51.716;14.324;2023-02-01T03:52:48;8.20;78.80
27940;DHT22;15275;51.716;14.324;2023-02-01T03:55:19;8.20;79.10
27940;DHT22;15275;51.716;14.324;2023-02-01T03:57:59;8.20;78.80
27940;DHT22;15275;51.716;14.324;2023-02-01T04:00:28;8.20;79.50
27940;DHT22;15275;51.716;14.324;2023-02-01T04:02:54;8.20;78.20
27940;DHT22;15275;51.716;14.324;2023-02-01T04:05:21;8.20;78.90
27940;DHT22;15275;51.716;14.324;2023-02-01T04:07:47;8.20;79.10
27940;DHT22;15275;51.716;14.324;2023-02-01T04:10:13;8.20;79.20
27940;DHT22;15275;51.716;14.324;2023-02-01T04:12:39;8.20;79.40
27940;DHT22;15275;51.716;14.324;2023-02-01T04:15:06;8.20;78.70
27940;DHT22;15275;51.716;14.324;2023-02-01T04:17:32;8.20;79.10
27940;DHT22;15275;51.716;14.324;2023-02-01T04:19:58;8.20;79.00
27940;DHT22;15275;51.716;14.324;2023-02-01T04:22:24;8.20;78.60
27940;DHT22;15275;51.716;14.324;2023-02-01T04:24:50;8.20;78.90
27940;DHT22;15275;51.716;14.324;2023-02-01T04:27:16;8.30;78.50
27940;DHT22;15275;51.716;14.324;2023-02-01T04:29:42;8.20;78.90
27940;DHT22;15275;51.716;14.324;2023-02-01T04:32:08;8.30;78.90
27940;DHT22;15275;51.716;14.324;2023-02-01T04:34:34;8.30;78.50
27940;DHT22;15275;51.716;14.324;2023-02-01T04:36:59;8.30;79.10
27940;DHT22;15275;51.716;14.324;2023-02-01T04:39:25;8.30;78.80
27940;DHT22;15275;51.716;14.324;2023-02-01T04:41:51;8.30;78.80
27940;DHT22;15275;51.716;14.324;2023-02-01T04:44:18;8.30;77.70
27940;DHT22;15275;51.716;14.324;2023-02-01T04:46:45;8.30;78.80
27940;DHT22;15275;51.716;14.324;2023-02-01T04:49:13;8.30;79.10
27940;DHT22;15275;51.716;14.324;2023-02-01T04:51:41;8.30;78.40
27940;DHT22;15275;51.716;14.324;2023-02-01T04:54:07;8.30;78.80
27940;DHT22;15275;51.716;14.324;2023-02-01T04:59:01;8.20;78.80
27940;DHT22;15275;51.716;14.324;2023-02-01T05:01:29;8.20;78.90
27940;DHT22;15275;51.716;14.324;2023-02-01T05:03:56;8.20;78.40
27940;DHT22;15275;51.716;14.324;2023-02-01T05:06:22;8.20;78.20
27940;DHT22;15275;51.716;14.324;2023-02-01T05:08:48;8.30;78.60
27940;DHT22;15275;51.716;14.324;2023-02-01T05:11:14;8.20;78.40
27940;DHT22;15275;51.716;14.324;2023-02-01T05:13:59;8.20;78.50
27940;DHT22;15275;51.716;14.324;2023-02-01T05:16:26;8.20;78.50
27940;DHT22;15275;51.716;14.324;2023-02-01T05:18:52;8.20;78.50
27940;DHT22;15275;51.716;14.324;2023-02-01T05:21:18;8.20;78.90
27940;DHT22;15275;51.716;14.324;2023-02-01T05:23:44;8.20;78.60
27940;DHT22;15275;51.716;14.324;2023-02-01T05:26:29;8.20;79.20
27940;DHT22;15275;51.716;14.324;2023-02-01T05:28:55;8.20;79.40
27940;DHT22;15275;51.716;14.324;2023-02-01T05:31:21;8.30;79.00
27940;DHT22;15275;51.716;14.324;2023-02-01T05:33:47;8.30;79.30
27940;DHT22;15275;51.716;14.324;2023-02-01T05:36:13;8.30;79.20
27940;DHT22;15275;51.716;14.324;2023-02-01T05:38:39;8.30;79.00
27940;DHT22;15275;51.716;14.324;2023-02-01T05:41:05;8.30;78.90
27940;DHT22;15275;51.716;14.324;2023-02-01T05:43:31;8.30;78.60
27940;DHT22;15275;51.716;14.324;2023-02-01T05:45:56;8.30;78.90
27940;DHT22;15275;51.716;14.324;2023-02-01T05:48:22;8.30;79.10
27940;DHT22;15275;51.716;14.324;2023-02-01T05:50:48;8.40;78.30
27940;DHT22;15275;51.716;14.324;2023-02-01T05:53:14;8.40;79.30
27940;DHT22;15275;51.716;14.324;2023-02-01T05:55:40;8.40;78.80
27940;DHT22;15275;51.716;14.324;2023-02-01T05:58:07;8.40;78.20
27940;DHT22;15275;51.716;14.324;2023-02-01T06:00:33;8.40;78.60
27940;DHT22;15275;51.716;14.324;2023-02-01T06:02:59;8.40;79.00
27940;DHT22;15275;51.716;14.324;2023-02-01T06:05:25;8.40;78.90
27940;DHT22;15275;51.716;14.324;2023-02-01T06:07:51;8.40;79.30
27940;DHT22;15275;51.716;14.324;2023-02-01T06:10:18;8.40;79.00
27940;DHT22;15275;51.716;14.324;2023-02-01T06:12:44;8.40;79.20
27940;DHT22;15275;51.716;14.324;2023-02-01T06:15:14;8.30;79.40
27940;DHT22;15275;51.716;14.324;2023-02-01T06:17:42;8.30;79.50
27940;DHT22;15275;51.716;14.324;2023-02-01T06:20:10;8.30;79.70
27940;DHT22;15275;51.716;14.324;2023-02-01T06:22:37;8.20;79.70
27940;DHT22;15275;51.716;14.324;2023-02-01T06:25:04;8.20;80.30
27940;DHT22;15275;51.716;14.324;2023-02-01T06:27:31;8.20;80.10
27940;DHT22;15275;51.716;14.324;2023-02-01T06:29:57;8.10;80.30
27940;DHT22;15275;51.716;14.324;2023-02-01T06:32:23;8.10;80.20
27940;DHT22;15275;51.716;14.324;2023-02-01T06:34:50;8.10;80.80
27940;DHT22;15275;51.716;14.324;2023-02-01T06:37:18;8.00;80.30
27940;DHT22;15275;51.716;14.324;2023-02-01T06:39:44;8.00;80.70
27940;DHT22;15275;51.716;14.324;2023-02-01T06:42:10;7.90;80.70
27940;DHT22;15275;51.716;14.324;2023-02-01T06:44:36;7.90;80.90
27940;DHT22;15275;51.716;14.324;2023-02-01T06:47:03;7.90;81.00
27940;DHT22;15275;51.716;14.324;2023-02-01T06:49:29;7.80;80.90
27940;DHT22;15275;51.716;14.324;2023-02-01T06:51:55;7.80;80.80
27940;DHT22;15275;51.716;14.324;2023-02-01T06:54:21;7.80;81.00
27940;DHT22;15275;51.716;14.324;2023-02-01T06:56:47;7.80;81.30
27940;DHT22;15275;51.716;14.324;2023-02-01T06:59:14;7.80;81.40
27940;DHT22;15275;51.716;14.324;2023-02-01T07:01:39;7.80;80.90
27940;DHT22;15275;51.716;14.324;2023-02-01T07:04:05;7.80;81.10
27940;DHT22;15275;51.716;14.324;2023-02-01T07:06:31;7.80;81.10
27940;DHT22;15275;51.716;14.324;2023-02-01T07:08:57;7.80;81.40
27940;DHT22;15275;51.716;14.324;2023-02-01T07:11:23;7.80;81.10
27940;DHT22;15275;51.716;14.324;2023-02-01T07:13:49;7.90;81.60
27940;DHT22;15275;51.716;14.324;2023-02-01T07:16:18;7.90;81.50
27940;DHT22;15275;51.716;14.324;2023-02-01T07:18:45;7.90;81.50
27940;DHT22;15275;51.716;14.324;2023-02-01T07:21:11;7.90;81.40
27940;DHT22;15275;51.716;14.324;2023-02-01T07:23:37;7.90;81.40
27940;DHT22;15275;51.716;14.324;2023-02-01T07:26:05;8.00;81.30
27940;DHT22;15275;51.716;14.324;2023-02-01T07:28:34;8.00;81.20
27940;DHT22;15275;51.716;14.324;2023-02-01T07:31:05;8.00;80.80
27940;DHT22;15275;51.716;14.324;2023-02-01T07:33:35;8.00;81.00
27940;DHT22;15275;51.716;14.324;2023-02-01T07:36:06;8.00;80.80
27940;DHT22;15275;51.716;14.324;2023-02-01T07:38:34;8.10;81.00
27940;DHT22;15275;51.716;14.324;2023-02-01T07:41:01;8.10;81.00
27940;DHT22;15275;51.716;14.324;2023-02-01T07:43:29;8.10;80.80
27940;DHT22;15275;51.716;14.324;2023-02-01T07:45:55;8.10;80.70
27940;DHT22;15275;51.716;14.324;2023-02-01T07:48:23;8.10;80.50
27940;DHT22;15275;51.716;14.324;2023-02-01T07:51:00;8.10;80.90
27940;DHT22;15275;51.716;14.324;2023-02-01T07:53:44;8.10;81.00
27940;DHT22;15275;51.716;14.324;2023-02-01T07:56:13;8.10;80.60
27940;DHT22;15275;51.716;14.324;2023-02-01T07:58:40;8.10;80.60
27940;DHT22;15275;51.716;14.324;2023-02-01T08:01:15;8.10;80.30
27940;DHT22;15275;51.716;14.324;2023-02-01T08:03:49;8.10;80.40
27940;DHT22;15275;51.716;14.324;2023-02-01T08:06:29;8.10;80.60
27940;DHT22;15275;51.716;14.324;2023-02-01T08:08:57;8.10;80.70
27940;DHT22;15275;51.716;14.324;2023-02-01T08:11:24;8.10;80.30
27940;DHT22;15275;51.716;14.324;2023-02-01T08:13:51;8.10;80.30
27940;DHT22;15275;51.716;14.324;2023-02-01T08:16:18;8.10;80.50
27940;DHT22;15275;51.716;14.324;2023-02-01T08:18:45;8.10;80.60
27940;DHT22;15275;51.716;14.324;2023-02-01T08:21:14;8.10;80.30
27940;DHT22;15275;51.716;14.324;2023-02-01T08:23:43;8.10;80.60
27940;DHT22;15275;51.716;14.324;2023-02-01T08:26:20;8.10;80.70
27940;DHT22;15275;51.716;14.324;2023-02-01T08:28:53;8.10;80.80
27940;DHT22;15275;51.716;14.324;2023-02-01T08:31:24;8.10;81.10
27940;DHT22;15275;51.716;14.324;2023-02-01T08:33:54;8.10;81.10
27940;DHT22;15275;51.716;14.324;2023-02-01T08:36:22;8.20;81.20
27940;DHT22;15275;51.716;14.324;2023-02-01T08:38:49;8.20;81.00
27940;DHT22;15275;51.716;14.324;2023-02-01T08:41:18;8.20;81.10
27940;DHT22;15275;51.716;14.324;2023-02-01T08:43:45;8.30;80.80
27940;DHT22;15275;51.716;14.324;2023-02-01T08:46:12;8.30;81.20
27940;DHT22;15275;51.716;14.324;2023-02-01T08:48:38;8.30;81.30
27940;DHT22;15275;51.716;14.324;2023-02-01T08:51:10;8.40;80.70
27940;DHT22;15275;51.716;14.324;2023-02-01T08:53:38;8.40;80.80
27940;DHT22;15275;51.716;14.324;2023-02-01T08:56:07;8.40;81.00
27940;DHT22;15275;51.716;14.324;2023-02-01T08:58:34;8.40;80.50
27940;DHT22;15275;51.716;14.324;2023-02-01T09:01:13;8.40;79.80
27940;DHT22;15275;51.716;14.324;2023-02-01T09:03:40;8.40;80.30
27940;DHT22;15275;51.716;14.324;2023-02-01T09:06:09;8.40;80.50
27940;DHT22;15275;51.716;14.324;2023-02-01T09:08:37;8.40;80.70
27940;DHT22;15275;51.716;14.324;2023-02-01T09:11:07;8.30;80.70
27940;DHT22;15275;51.716;14.324;2023-02-01T09:13:35;8.30;81.00
27940;DHT22;15275;51.716;14.324;2023-02-01T09:16:01;8.30;81.00
27940;DHT22;15275;51.716;14.324;2023-02-01T09:18:28;8.30;81.00
27940;DHT22;15275;51.716;14.324;2023-02-01T09:20:54;8.30;81.00
27940;DHT22;15275;51.716;14.324;2023-02-01T09:23:19;8.20;81.00
27940;DHT22;15275;51.716;14.324;2023-02-01T09:25:46;8.20;81.20
27940;DHT22;15275;51.716;14.324;2023-02-01T09:28:14;8.20;81.50
27940;DHT22;15275;51.716;14.324;2023-02-01T09:30:39;8.10;81.90
27940;DHT22;15275;51.716;14.324;2023-02-01T09:33:05;8.10;81.70
27940;DHT22;15275;51.716;14.324;2023-02-01T09:35:31;8.10;81.90
27940;DHT22;15275;51.716;14.324;2023-02-01T09:37:57;8.10;81.70
27940;DHT22;15275;51.716;14.324;2023-02-01T09:40:23;8.00;82.10
27940;DHT22;15275;51.716;14.324;2023-02-01T09:48:39;8.00;82.20
27940;DHT22;15275;51.716;14.324;2023-02-01T09:51:16;8.00;82.60
27940;DHT22;15275;51.716;14.324;2023-02-01T09:53:55;8.00;82.90
27940;DHT22;15275;51.716;14.324;2023-02-01T09:56:26;8.00;83.10
27940;DHT22;15275;51.716;14.324;2023-02-01T10:01:53;8.00;83.40
27940;DHT22;15275;51.716;14.324;2023-02-01T10:04:19;8.00;83.40
27940;DHT22;15275;51.716;14.324;2023-02-01T10:09:50;8.00;83.40
27940;DHT22;15275;51.716;14.324;2023-02-01T10:15:44;8.00;83.50
27940;DHT22;15275;51.716;14.324;2023-02-01T10:18:44;8.00;82.90
27940;DHT22;15275;51.716;14.324;2023-02-01T10:22:00;8.00;83.60
27940;DHT22;15275;51.716;14.324;2023-02-01T10:27:02;8.00;83.60
27940;DHT22;15275;51.716;14.324;2023-02-01T10:29:44;8.00;83.50
27940;DHT22;15275;51.716;14.324;2023-02-01T10:32:33;7.90;83.50
27940;DHT22;15275;51.716;14.324;2023-02-01T10:35:16;7.90;83.50
27940;DHT22;15275;51.716;14.324;2023-02-01T10:37:44;7.90;83.60
27940;DHT22;15275;51.716;14.324;2023-02-01T10:40:25;7.90;83.70
27940;DHT22;15275;51.716;14.324;2023-02-01T10:42:59;7.90;83.90
27940;DHT22;15275;51.716;14.324;2023-02-01T10:45:29;7.90;84.30
27940;DHT22;15275;51.716;14.324;2023-02-01T10:47:57;8.00;83.90
27940;DHT22;15275;51.716;14.324;2023-02-01T10:50:49;8.00;84.30
27940;DHT22;15275;51.716;14.324;2023-02-01T10:56:07;8.00;84.30
27940;DHT22;15275;51.716;14.324;2023-02-01T10:58:36;8.00;84.20
27940;DHT22;15275;51.716;14.324;2023-02-01T11:01:21;8.00;84.30
27940;DHT22;15275;51.716;14.324;2023-02-01T11:04:00;8.00;84.20
27940;DHT22;15275;51.716;14.324;2023-02-01T11:11:59;8.00;84.30
27940;DHT22;15275;51.716;14.324;2023-02-01T11:16:57;8.10;84.60
27940;DHT22;15275;51.716;14.324;2023-02-01T11:19:26;8.10;84.90
27940;DHT22;15275;51.716;14.324;2023-02-01T11:21:59;8.10;84.80
27940;DHT22;15275;51.716;14.324;2023-02-01T11:24:27;8.20;85.10
27940;DHT22;15275;51.716;14.324;2023-02-01T11:27:00;8.30;84.50
27940;DHT22;15275;51.716;14.324;2023-02-01T11:29:40;8.30;84.90
27940;DHT22;15275;51.716;14.324;2023-02-01T11:32:10;8.40;84.70
27940;DHT22;15275;51.716;14.324;2023-02-01T11:34:52;8.40;84.90
27940;DHT22;15275;51.716;14.324;2023-02-01T11:40:03;8.60;84.70
27940;DHT22;15275;51.716;14.324;2023-02-01T11:42:56;8.60;84.50
27940;DHT22;15275;51.716;14.324;2023-02-01T11:45:31;8.70;84.80
27940;DHT22;15275;51.716;14.324;2023-02-01T11:48:00;8.80;84.50
27940;DHT22;15275;51.716;14.324;2023-02-01T11:50:42;8.80;84.20
27940;DHT22;15275;51.716;14.324;2023-02-01T12:05:59;9.10;84.40
27940;DHT22;15275;51.716;14.324;2023-02-01T12:11:58;9.20;84.30
27940;DHT22;15275;51.716;14.324;2023-02-01T12:14:44;9.30;83.20
27940;DHT22;15275;51.716;14.324;2023-02-01T12:20:52;9.40;82.30
27940;DHT22;15275;51.716;14.324;2023-02-01T12:27:00;9.40;82.60
27940;DHT22;15275;51.716;14.324;2023-02-01T12:43:57;9.50;83.00
27940;DHT22;15275;51.716;14.324;2023-02-01T12:46:37;9.60;81.70
27940;DHT22;15275;51.716;14.324;2023-02-01T12:51:54;9.60;81.90
27940;DHT22;15275;51.716;14.324;2023-02-01T12:57:21;9.70;82.10
27940;DHT22;15275;51.716;14.324;2023-02-01T13:05:49;9.70;81.50
27940;DHT22;15275;51.716;14.324;2023-02-01T13:08:19;9.70;81.10
27940;DHT22;15275;51.716;14.324;2023-02-01T13:11:03;9.60;80.70
27940;DHT22;15275;51.716;14.324;2023-02-01T13:13:58;9.60;80.60
27940;DHT22;15275;51.716;14.324;2023-02-01T13:16:35;9.60;80.80
27940;DHT22;15275;51.716;14.324;2023-02-01T13:19:35;9.60;80.60
27940;DHT22;15275;51.716;14.324;2023-02-01T13:22:19;9.50;79.80
27940;DHT22;15275;51.716;14.324;2023-02-01T13:24:49;9.50;80.60
27940;DHT22;15275;51.716;14.324;2023-02-01T13:27:18;9.50;81.30
27940;DHT22;15275;51.716;14.324;2023-02-01T13:29:56;9.50;81.20
27940;DHT22;15275;51.716;14.324;2023-02-01T13:41:43;9.40;81.20
27940;DHT22;15275;51.716;14.324;2023-02-01T13:44:45;9.40;81.00
27940;DHT22;15275;51.716;14.324;2023-02-01T13:47:26;9.30;81.60
27940;DHT22;15275;51.716;14.324;2023-02-01T13:49:57;9.30;81.20
27940;DHT22;15275;51.716;14.324;2023-02-01T13:52:38;9.30;81.60
27940;DHT22;15275;51.716;14.324;2023-02-01T13:55:32;9.30;81.40
27940;DHT22;15275;51.716;14.324;2023-02-01T13:58:18;9.30;80.50
27940;DHT22;15275;51.716;14.324;2023-02-01T14:00:48;9.30;81.10
27940;DHT22;15275;51.716;14.324;2023-02-01T14:03:43;9.30;81.40
27940;DHT22;15275;51.716;14.324;2023-02-01T14:19:28;9.30;81.40
27940;DHT22;15275;51.716;14.324;2023-02-01T14:24:56;9.30;80.10
27940;DHT22;15275;51.716;14.324;2023-02-01T14:27:25;9.30;80.80
27940;DHT22;15275;51.716;14.324;2023-02-01T14:30:01;9.30;81.10
27940;DHT22;15275;51.716;14.324;2023-02-01T14:32:36;9.30;80.80
27940;DHT22;15275;51.716;14.324;2023-02-01T14:35:07;9.30;80.90
27940;DHT22;15275;51.716;14.324;2023-02-01T14:37:47;9.30;81.00
27940;DHT22;15275;51.716;14.324;2023-02-01T14:40:24;9.30;80.70
27940;DHT22;15275;51.716;14.324;2023-02-01T14:42:53;9.30;80.90
27940;DHT22;15275;51.716;14.324;2023-02-01T14:58:32;9.10;80.50
27940;DHT22;15275;51.716;14.324;2023-02-01T15:09:32;9.00;80.10
27940;DHT22;15275;51.716;14.324;2023-02-01T15:14:42;8.90;80.50
27940;DHT22;15275;51.716;14.324;2023-02-01T15:17:29;8.90;80.70
27940;DHT22;15275;51.716;14.324;2023-02-01T15:20:12;8.90;81.10
27940;DHT22;15275;51.716;14.324;2023-02-01T15:22:43;8.90;80.40
27940;DHT22;15275;51.716;14.324;2023-02-01T15:25:21;8.90;81.00
27940;DHT22;15275;51.716;14.324;2023-02-01T15:27:49;8.90;81.10
27940;DHT22;15275;51.716;14.324;2023-02-01T15:30:20;8.90;80.90
27940;DHT22;15275;51.716;14.324;2023-02-01T15:32:47;8.90;80.70
27940;DHT22;15275;51.716;14.324;2023-02-01T15:38:41;8.90;79.90
27940;DHT22;15275;51.716;14.324;2023-02-01T15:46:35;8.90;80.00
27940;DHT22;15275;51.716;14.324;2023-02-01T15:49:03;8.90;79.40
27940;DHT22;15275;51.716;14.324;2023-02-01T15:51:31;8.90;80.40
27940;DHT22;15275;51.716;14.324;2023-02-01T15:54:04;8.90;80.50
27940;DHT22;15275;51.716;14.324;2023-02-01T15:56:39;8.80;80.40
27940;DHT22;15275;51.716;14.324;2023-02-01T15:59:17;8.70;80.40
27940;DHT22;15275;51.716;14.324;2023-02-01T16:01:44;8.70;80.50
27940;DHT22;15275;51.716;14.324;2023-02-01T16:04:26;8.60;80.70
27940;DHT22;15275;51.716;14.324;2023-02-01T16:07:25;8.50;81.00
27940;DHT22;15275;51.716;14.324;2023-02-01T16:09:55;8.50;80.60
27940;DHT22;15275;51.716;14.324;2023-02-01T16:12:29;8.40;81.00
27940;DHT22;15275;51.716;14.324;2023-02-01T16:14:56;8.40;81.30
27940;DHT22;15275;51.716;14.324;2023-02-01T16:17:22;8.30;81.30
27940;DHT22;15275;51.716;14.324;2023-02-01T16:19:48;8.30;81.60
27940;DHT22;15275;51.716;14.324;2023-02-01T16:22:14;8.20;81.60
27940;DHT22;15275;51.716;14.324;2023-02-01T16:24:40;8.20;81.80
27940;DHT22;15275;51.716;14.324;2023-02-01T16:27:05;8.10;81.70
27940;DHT22;15275;51.716;14.324;2023-02-01T16:29:32;8.10;81.80
27940;DHT22;15275;51.716;14.324;2023-02-01T16:31:59;8.10;81.90
27940;DHT22;15275;51.716;14.324;2023-02-01T16:34:25;8.00;82.10
27940;DHT22;15275;51.716;14.324;2023-02-01T16:36:51;8.00;82.30
27940;DHT22;15275;51.716;14.324;2023-02-01T16:39:19;8.00;82.20
27940;DHT22;15275;51.716;14.324;2023-02-01T16:41:46;7.90;82.40
27940;DHT22;15275;51.716;14.324;2023-02-01T16:44:11;7.90;82.70
27940;DHT22;15275;51.716;14.324;2023-02-01T16:46:45;7.90;82.80
27940;DHT22;15275;51.716;14.324;2023-02-01T16:49:23;7.90;83.00
27940;DHT22;15275;51.716;14.324;2023-02-01T16:51:51;7.90;83.20
27940;DHT22;15275;51.716;14.324;2023-02-01T16:54:19;7.90;83.10
27940;DHT22;15275;51.716;14.324;2023-02-01T16:56:45;7.80;83.20
27940;DHT22;15275;51.716;14.324;2023-02-01T16:59:12;7.80;83.40
27940;DHT22;15275;51.716;14.324;2023-02-01T17:01:39;7.80;83.50
27940;DHT22;15275;51.716;14.324;2023-02-01T17:04:07;7.80;83.60
27940;DHT22;15275;51.716;14.324;2023-02-01T17:06:35;7.80;83.40
27940;DHT22;15275;51.716;14.324;2023-02-01T17:09:05;7.80;83.50
27940;DHT22;15275;51.716;14.324;2023-02-01T17:11:31;7.80;83.50
27940;DHT22;15275;51.716;14.324;2023-02-01T17:14:18;7.80;83.60
27940;DHT22;15275;51.716;14.324;2023-02-01T17:16:48;7.80;83.40
27940;DHT22;15275;51.716;14.324;2023-02-01T17:19:16;7.80;83.40
27940;DHT22;15275;51.716;14.324;2023-02-01T17:21:49;7.80;83.70
27940;DHT22;15275;51.716;14.324;2023-02-01T17:24:22;7.80;83.70
27940;DHT22;15275;51.716;14.324;2023-02-01T17:26:50;7.80;83.80
27940;DHT22;15275;51.716;14.324;2023-02-01T17:29:17;7.70;83.50
27940;DHT22;15275;51.716;14.324;2023-02-01T17:31:45;7.70;83.80
27940;DHT22;15275;51.716;14.324;2023-02-01T17:34:14;7.70;84.00
27940;DHT22;15275;51.716;14.324;2023-02-01T17:36:42;7.70;83.90
27940;DHT22;15275;51.716;14.324;2023-02-01T17:39:09;7.70;84.10
27940;DHT22;15275;51.716;14.324;2023-02-01T17:41:36;7.70;84.00
27940;DHT22;15275;51.716;14.324;2023-02-01T17:44:03;7.60;84.10
27940;DHT22;15275;51.716;14.324;2023-02-01T17:46:30;7.60;84.10
27940;DHT22;15275;51.716;14.324;2023-02-01T17:48:56;7.60;83.90
27940;DHT22;15275;51.716;14.324;2023-02-01T17:51:27;7.50;84.10
27940;DHT22;15275;51.716;14.324;2023-02-01T17:53:54;7.50;84.20
27940;DHT22;15275;51.716;14.324;2023-02-01T17:56:23;7.50;84.40
27940;DHT22;15275;51.716;14.324;2023-02-01T17:58:50;7.50;84.40
27940;DHT22;15275;51.716;14.324;2023-02-01T18:01:22;7.40;84.50
27940;DHT22;15275;51.716;14.324;2023-02-01T18:03:49;7.40;84.70
27940;DHT22;15275;51.716;14.324;2023-02-01T18:06:18;7.40;84.70
27940;DHT22;15275;51.716;14.324;2023-02-01T18:08:47;7.40;84.70
27940;DHT22;15275;51.716;14.324;2023-02-01T18:11:16;7.40;84.70
27940;DHT22;15275;51.716;14.324;2023-02-01T18:13:43;7.40;84.90
27940;DHT22;15275;51.716;14.324;2023-02-01T18:16:18;7.30;84.90
27940;DHT22;15275;51.716;14.324;2023-02-01T18:18:46;7.30;84.90
27940;DHT22;15275;51.716;14.324;2023-02-01T18:21:13;7.30;85.00
27940;DHT22;15275;51.716;14.324;2023-02-01T18:23:40;7.30;85.10
27940;DHT22;15275;51.716;14.324;2023-02-01T18:26:10;7.30;85.10
27940;DHT22;15275;51.716;14.324;2023-02-01T18:28:37;7.30;84.80
27940;DHT22;15275;51.716;14.324;2023-02-01T18:31:04;7.30;84.90
27940;DHT22;15275;51.716;14.324;2023-02-01T18:33:31;7.30;84.90
27940;DHT22;15275;51.716;14.324;2023-02-01T18:35:57;7.30;84.90
27940;DHT22;15275;51.716;14.324;2023-02-01T18:38:23;7.30;84.90
27940;DHT22;15275;51.716;14.324;2023-02-01T18:40:51;7.30;85.00
27940;DHT22;15275;51.716;14.324;2023-02-01T18:43:19;7.30;84.80
27940;DHT22;15275;51.716;14.324;2023-02-01T18:45:46;7.30;84.90
27940;DHT22;15275;51.716;14.324;2023-02-01T18:48:14;7.30;85.00